sensor_id;sensor_type;location;lat;lon;timestamp;temperature;humidity
14475;DHT22;7323;50.848;4.334;2023-05-10T00:00:15;14.10;99.90
14475;DHT22;7323;50.848;4.334;2023-05-10T00:02:41;14.00;99.90
14475;DHT22;7323;50.848;4.334;2023-05-10T00:05:08;14.10;99.90
14475;DHT22;7323;50.848;4.334;2023-05-10T00:07:34;14.10;99.90
14475;DHT22;7323;50.848;4.334;2023-05-10T00:09:59;14.10;99.90
14475;DHT22;7323;50.848;4.334;2023-05-10T00:12:25;14.10;99.90
14475;DHT22;7323;50.848;4.334;2023-05-10T00:14:51;14.00;99.90
14475;DHT22;7323;50.848;4.334;2023-05-10T00:17:16;14.10;99.90
14475;DHT22;7323;50.848;4.334;2023-05-10T00:19:42;14.00;99.90
14475;DHT22;7323;50.848;4.334;2023-05-10T00:22:08;14.00;99.90
14475;DHT22;7323;50.848;4.334;2023-05-10T00:24:33;14.00;99.90
14475;DHT22;7323;50.848;4.334;2023-05-10T00:26:59;13.90;99.90
14475;DHT22;7323;50.848;4.334;2023-05-10T00:29:26;13.90;99.90
14475;DHT22;7323;50.848;4.334;2023-05-10T00:31:53;13.90;99.90
14475;DHT22;7323;50.848;4.334;2023-05-10T00:34:19;13.80;99.90
14475;DHT22;7323;50.848;4.334;2023-05-10T00:36:44;13.80;99.90
14475;DHT22;7323;50.848;4.334;2023-05-10T00:39:10;13.80;99.90
14475;DHT22;7323;50.848;4.334;2023-05-10T00:41:36;13.90;99.90
14475;DHT22;7323;50.848;4.334;2023-05-10T00:44:02;14.00;99.90
14475;DHT22;7323;50.848;4.334;2023-05-10T00:46:28;13.90;99.90
14475;DHT22;7323;50.848;4.334;2023-05-10T00:48:54;13.90;99.90
14475;DHT22;7323;50.848;4.334;2023-05-10T00:51:20;14.00;99.90
14475;DHT22;7323;50.848;4.334;2023-05-10T00:53:46;14.00;99.90
14475;DHT22;7323;50.848;4.334;2023-05-10T00:56:12;14.00;99.90
14475;DHT22;7323;50.848;4.334;2023-05-10T00:58:39;14.10;99.90
14475;DHT22;7323;50.848;4.334;2023-05-10T01:01:05;14.00;99.90
14475;DHT22;7323;50.848;4.334;2023-05-10T01:03:32;14.00;99.90
14475;DHT22;7323;50.848;4.334;2023-05-10T01:05:58;14.10;99.90
14475;DHT22;7323;50.848;4.334;2023-05-10T01:08:24;14.10;99.90
14475;DHT22;7323;50.848;4.334;2023-05-10T01:10:50;14.10;99.90
14475;DHT22;7323;50.848;4.334;2023-05-10T01:13:37;14.10;99.90
14475;DHT22;7323;50.848;4.334;2023-05-10T01:16:03;14.00;99.90
14475;DHT22;7323;50.848;4.334;2023-05-10T01:18:33;14.10;99.90
14475;DHT22;7323;50.848;4.334;2023-05-10T01:23:45;14.30;99.90
14475;DHT22;7323;50.848;4.334;2023-05-10T01:34:35;14.30;99.90
14475;DHT22;7323;50.848;4.334;2023-05-10T01:37:36;14.30;99.90
14475;DHT22;7323;50.848;4.334;2023-05-10T01:40:13;14.30;99.90
14475;DHT22;7323;50.848;4.334;2023-05-10T01:42:46;14.20;99.90
14475;DHT22;7323;50.848;4.334;2023-05-10T01:48:11;14.10;99.90
14475;DHT22;7323;50.848;4.334;2023-05-10T01:50:43;14.00;99.90
14475;DHT22;7323;50.848;4.334;2023-05-10T01:53:10;14.10;99.90
14475;DHT22;7323;50.848;4.334;2023-05-10T01:55:45;14.10;99.90
14475;DHT22;7323;50.848;4.334;2023-05-10T01:58:20;14.20;99.90
14475;DHT22;7323;50.848;4.334;2023-05-10T02:00:47;14.20;99.90
14475;DHT22;7323;50.848;4.334;2023-05-10T02:03:16;14.20;99.90
14475;DHT22;7323;50.848;4.334;2023-05-10T02:05:44;14.00;99.90
14475;DHT22;7323;50.848;4.334;2023-05-10T02:08:13;14.00;99.90
14475;DHT22;7323;50.848;4.334;2023-05-10T02:10:41;14.10;99.90
14475;DHT22;7323;50.848;4.334;2023-05-10T02:13:09;14.20;99.90
14475;DHT22;7323;50.848;4.334;2023-05-10T02:15:37;14.20;99.90
14475;DHT22;7323;50.848;4.334;2023-05-10T02:18:05;14.10;99.90
14475;DHT22;7323;50.848;4.334;2023-05-10T02:20:32;14.10;99.90
14475;DHT22;7323;50.848;4.334;2023-05-10T02:22:59;14.10;99.90
14475;DHT22;7323;50.848;4.334;2023-05-10T02:25:27;14.10;99.90
14475;DHT22;7323;50.848;4.334;2023-05-10T02:27:55;14.10;99.90
14475;DHT22;7323;50.848;4.334;2023-05-10T02:30:22;14.20;99.90
14475;DHT22;7323;50.848;4.334;2023-05-10T02:32:49;14.10;99.90
14475;DHT22;7323;50.848;4.334;2023-05-10T02:35:16;14.10;99.90
14475;DHT22;7323;50.848;4.334;2023-05-10T02:37:43;14.00;99.90
14475;DHT22;7323;50.848;4.334;2023-05-10T02:40:11;14.00;99.90
14475;DHT22;7323;50.848;4.334;2023-05-10T02:42:38;14.10;99.90
14475;DHT22;7323;50.848;4.334;2023-05-10T02:45:11;14.00;99.90
14475;DHT22;7323;50.848;4.334;2023-05-10T02:47:37;14.00;99.90
14475;DHT22;7323;50.848;4.334;2023-05-10T02:50:03;14.00;99.90
14475;DHT22;7323;50.848;4.334;2023-05-10T02:52:44;13.90;99.90
14475;DHT22;7323;50.848;4.334;2023-05-10T02:55:14;14.00;99.90
14475;DHT22;7323;50.848;4.334;2023-05-10T02:57:50;13.90;99.90
14475;DHT22;7323;50.848;4.334;2023-05-10T03:00:17;14.00;99.90
14475;DHT22;7323;50.848;4.334;2023-05-10T03:02:43;14.00;99.90
14475;DHT22;7323;50.848;4.334;2023-05-10T03:05:09;14.00;99.90
14475;DHT22;7323;50.848;4.334;2023-05-10T03:07:35;14.10;99.90
14475;DHT22;7323;50.848;4.334;2023-05-10T03:10:01;14.00;99.90
14475;DHT22;7323;50.848;4.334;2023-05-10T03:15:42;14.00;99.90
14475;DHT22;7323;50.848;4.334;2023-05-10T03:21:08;13.90;99.90
14475;DHT22;7323;50.848;4.334;2023-05-10T03:23:43;14.00;99.90
14475;DHT22;7323;50.848;4.334;2023-05-10T03:26:24;14.00;99.90
14475;DHT22;7323;50.848;4.334;2023-05-10T03:28:52;14.00;99.90
14475;DHT22;7323;50.848;4.334;2023-05-10T03:31:18;14.00;99.90
14475;DHT22;7323;50.848;4.334;2023-05-10T03:33:48;14.00;99.90
14475;DHT22;7323;50.848;4.334;2023-05-10T03:36:14;14.00;99.90
14475;DHT22;7323;50.848;4.334;2023-05-10T03:38:40;14.00;99.90
14475;DHT22;7323;50.848;4.334;2023-05-10T03:41:05;14.00;99.90
14475;DHT22;7323;50.848;4.334;2023-05-10T03:43:31;13.90;99.90
14475;DHT22;7323;50.848;4.334;2023-05-10T03:45:57;13.80;99.90
14475;DHT22;7323;50.848;4.334;2023-05-10T03:48:22;13.80;99.90
14475;DHT22;7323;50.848;4.334;2023-05-10T03:50:48;13.70;99.90
14475;DHT22;7323;50.848;4.334;2023-05-10T03:53:15;13.80;99.90
14475;DHT22;7323;50.848;4.334;2023-05-10T03:55:41;13.80;99.90
14475;DHT22;7323;50.848;4.334;2023-05-10T03:58:06;13.90;99.90
14475;DHT22;7323;50.848;4.334;2023-05-10T04:00:35;14.00;99.90
14475;DHT22;7323;50.848;4.334;2023-05-10T04:03:01;14.00;99.90
14475;DHT22;7323;50.848;4.334;2023-05-10T04:05:27;14.00;99.90
14475;DHT22;7323;50.848;4.334;2023-05-10T04:07:52;14.20;99.90
14475;DHT22;7323;50.848;4.334;2023-05-10T04:10:18;14.20;99.90
14475;DHT22;7323;50.848;4.334;2023-05-10T04:12:44;14.20;99.90
14475;DHT22;7323;50.848;4.334;2023-05-10T04:15:09;14.00;99.90
14475;DHT22;7323;50.848;4.334;2023-05-10T04:17:36;14.00;99.90
14475;DHT22;7323;50.848;4.334;2023-05-10T04:20:03;14.00;99.90
14475;DHT22;7323;50.848;4.334;2023-05-10T04:22:29;13.80;99.90
14475;DHT22;7323;50.848;4.334;2023-05-10T04:24:57;13.90;99.90
14475;DHT22;7323;50.848;4.334;2023-05-10T04:27:23;14.00;99.90
14475;DHT22;7323;50.848;4.334;2023-05-10T04:29:49;14.00;99.90
14475;DHT22;7323;50.848;4.334;2023-05-10T04:32:14;14.00;99.90
14475;DHT22;7323;50.848;4.334;2023-05-10T04:34:41;14.00;99.90
14475;DHT22;7323;50.848;4.334;2023-05-10T04:37:07;14.10;99.90
14475;DHT22;7323;50.848;4.334;2023-05-10T04:39:32;14.10;99.90
14475;DHT22;7323;50.848;4.334;2023-05-10T04:41:58;14.00;99.90
14475;DHT22;7323;50.848;4.334;2023-05-10T04:44:25;14.00;99.90
14475;DHT22;7323;50.848;4.334;2023-05-10T04:46:51;14.00;99.90
14475;DHT22;7323;50.848;4.334;2023-05-10T04:49:18;14.10;99.90
14475;DHT22;7323;50.848;4.334;2023-05-10T04:51:43;14.20;99.90
14475;DHT22;7323;50.848;4.334;2023-05-10T04:54:09;14.20;99.90
14475;DHT22;7323;50.848;4.334;2023-05-10T04:56:35;14.10;99.90
14475;DHT22;7323;50.848;4.334;2023-05-10T04:59:01;14.10;99.90
14475;DHT22;7323;50.848;4.334;2023-05-10T05:01:27;14.10;99.90
14475;DHT22;7323;50.848;4.334;2023-05-10T05:03:52;14.20;99.90
14475;DHT22;7323;50.848;4.334;2023-05-10T05:06:18;14.10;99.90
14475;DHT22;7323;50.848;4.334;2023-05-10T05:08:46;14.20;99.90
14475;DHT22;7323;50.848;4.334;2023-05-10T05:11:12;14.10;99.90
14475;DHT22;7323;50.848;4.334;2023-05-10T05:13:37;14.10;99.90
14475;DHT22;7323;50.848;4.334;2023-05-10T05:16:04;14.20;99.90
14475;DHT22;7323;50.848;4.334;2023-05-10T05:18:30;14.10;99.90
14475;DHT22;7323;50.848;4.334;2023-05-10T05:20:56;14.00;99.90
14475;DHT22;7323;50.848;4.334;2023-05-10T05:23:21;14.00;99.90
14475;DHT22;7323;50.848;4.334;2023-05-10T05:25:51;13.90;99.90
14475;DHT22;7323;50.848;4.334;2023-05-10T05:28:18;13.70;99.90
14475;DHT22;7323;50.848;4.334;2023-05-10T05:30:44;13.50;99.90
14475;DHT22;7323;50.848;4.334;2023-05-10T05:33:09;13.40;99.90
14475;DHT22;7323;50.848;4.334;2023-05-10T05:35:35;13.40;99.90
14475;DHT22;7323;50.848;4.334;2023-05-10T05:38:01;13.30;99.90
14475;DHT22;7323;50.848;4.334;2023-05-10T05:40:26;13.20;99.90
14475;DHT22;7323;50.848;4.334;2023-05-10T05:42:52;13.20;99.90
14475;DHT22;7323;50.848;4.334;2023-05-10T05:45:18;13.20;99.90
14475;DHT22;7323;50.848;4.334;2023-05-10T05:47:43;13.20;99.90
14475;DHT22;7323;50.848;4.334;2023-05-10T05:50:09;13.20;99.90
14475;DHT22;7323;50.848;4.334;2023-05-10T05:52:35;13.20;99.90
14475;DHT22;7323;50.848;4.334;2023-05-10T05:55:01;13.30;99.90
14475;DHT22;7323;50.848;4.334;2023-05-10T05:57:29;13.40;99.90
14475;DHT22;7323;50.848;4.334;2023-05-10T05:59:55;13.40;99.90
14475;DHT22;7323;50.848;4.334;2023-05-10T06:02:22;13.50;99.90
14475;DHT22;7323;50.848;4.334;2023-05-10T06:04:48;13.60;99.90
14475;DHT22;7323;50.848;4.334;2023-05-10T06:07:13;13.60;99.90
14475;DHT22;7323;50.848;4.334;2023-05-10T06:09:39;13.70;99.90
14475;DHT22;7323;50.848;4.334;2023-05-10T06:12:05;13.70;99.90
14475;DHT22;7323;50.848;4.334;2023-05-10T06:14:30;13.60;99.90
14475;DHT22;7323;50.848;4.334;2023-05-10T06:16:57;13.50;99.90
14475;DHT22;7323;50.848;4.334;2023-05-10T06:19:25;13.60;99.90
14475;DHT22;7323;50.848;4.334;2023-05-10T06:21:51;13.60;99.90
14475;DHT22;7323;50.848;4.334;2023-05-10T06:24:17;13.60;99.90
14475;DHT22;7323;50.848;4.334;2023-05-10T06:26:43;13.60;99.90
14475;DHT22;7323;50.848;4.334;2023-05-10T06:29:08;13.60;99.90
14475;DHT22;7323;50.848;4.334;2023-05-10T06:31:34;13.60;99.90
14475;DHT22;7323;50.848;4.334;2023-05-10T06:34:02;13.50;99.90
14475;DHT22;7323;50.848;4.334;2023-05-10T06:36:27;13.50;99.90
14475;DHT22;7323;50.848;4.334;2023-05-10T06:38:53;13.60;99.90
14475;DHT22;7323;50.848;4.334;2023-05-10T06:41:19;13.50;99.90
14475;DHT22;7323;50.848;4.334;2023-05-10T06:43:45;13.50;99.90
14475;DHT22;7323;50.848;4.334;2023-05-10T06:46:11;13.60;99.90
14475;DHT22;7323;50.848;4.334;2023-05-10T06:48:37;13.60;99.90
14475;DHT22;7323;50.848;4.334;2023-05-10T06:51:02;13.50;99.90
14475;DHT22;7323;50.848;4.334;2023-05-10T06:53:34;13.50;99.90
14475;DHT22;7323;50.848;4.334;2023-05-10T06:56:02;13.50;99.90
14475;DHT22;7323;50.848;4.334;2023-05-10T06:58:31;13.40;99.90
14475;DHT22;7323;50.848;4.334;2023-05-10T07:01:09;13.40;99.90
14475;DHT22;7323;50.848;4.334;2023-05-10T07:03:35;13.40;99.90
14475;DHT22;7323;50.848;4.334;2023-05-10T07:06:02;13.30;99.90
14475;DHT22;7323;50.848;4.334;2023-05-10T07:08:31;13.30;99.90
14475;DHT22;7323;50.848;4.334;2023-05-10T07:11:04;13.30;99.90
14475;DHT22;7323;50.848;4.334;2023-05-10T07:13:41;13.20;99.90
14475;DHT22;7323;50.848;4.334;2023-05-10T07:16:10;13.30;99.90
14475;DHT22;7323;50.848;4.334;2023-05-10T07:18:37;13.30;99.90
14475;DHT22;7323;50.848;4.334;2023-05-10T07:21:09;13.30;99.90
14475;DHT22;7323;50.848;4.334;2023-05-10T07:23:37;13.20;99.90
14475;DHT22;7323;50.848;4.334;2023-05-10T07:26:09;13.30;99.90
14475;DHT22;7323;50.848;4.334;2023-05-10T07:28:44;13.40;99.90
14475;DHT22;7323;50.848;4.334;2023-05-10T07:31:10;13.30;99.90
14475;DHT22;7323;50.848;4.334;2023-05-10T07:33:35;13.20;99.90
14475;DHT22;7323;50.848;4.334;2023-05-10T07:36:01;13.20;99.90
14475;DHT22;7323;50.848;4.334;2023-05-10T07:38:27;13.20;99.90
14475;DHT22;7323;50.848;4.334;2023-05-10T07:40:57;13.10;99.90
14475;DHT22;7323;50.848;4.334;2023-05-10T07:43:23;13.10;99.90
14475;DHT22;7323;50.848;4.334;2023-05-10T07:45:51;13.30;99.90
14475;DHT22;7323;50.848;4.334;2023-05-10T07:48:25;13.30;99.90
14475;DHT22;7323;50.848;4.334;2023-05-10T07:50:51;13.30;99.90
14475;DHT22;7323;50.848;4.334;2023-05-10T07:53:17;13.20;99.90
14475;DHT22;7323;50.848;4.334;2023-05-10T07:55:50;13.20;99.90
14475;DHT22;7323;50.848;4.334;2023-05-10T07:58:17;13.20;99.90
14475;DHT22;7323;50.848;4.334;2023-05-10T08:00:49;13.10;99.90
14475;DHT22;7323;50.848;4.334;2023-05-10T08:03:17;13.10;99.90
14475;DHT22;7323;50.848;4.334;2023-05-10T08:05:46;13.10;99.90
14475;DHT22;7323;50.848;4.334;2023-05-10T08:08:12;13.10;99.90
14475;DHT22;7323;50.848;4.334;2023-05-10T08:10:38;13.20;99.90
14475;DHT22;7323;50.848;4.334;2023-05-10T08:13:07;13.10;99.90
14475;DHT22;7323;50.848;4.334;2023-05-10T08:15:33;13.20;99.90
14475;DHT22;7323;50.848;4.334;2023-05-10T08:17:59;13.30;99.90
14475;DHT22;7323;50.848;4.334;2023-05-10T08:20:25;13.30;99.90
14475;DHT22;7323;50.848;4.334;2023-05-10T08:22:51;13.40;99.90
14475;DHT22;7323;50.848;4.334;2023-05-10T08:25:18;13.40;99.90
14475;DHT22;7323;50.848;4.334;2023-05-10T08:27:47;13.50;99.90
14475;DHT22;7323;50.848;4.334;2023-05-10T08:30:13;13.50;99.90
14475;DHT22;7323;50.848;4.334;2023-05-10T08:32:41;13.50;99.90
14475;DHT22;7323;50.848;4.334;2023-05-10T08:35:07;13.70;99.90
14475;DHT22;7323;50.848;4.334;2023-05-10T08:37:33;13.70;99.90
14475;DHT22;7323;50.848;4.334;2023-05-10T08:39:58;13.90;99.90
14475;DHT22;7323;50.848;4.334;2023-05-10T08:42:25;13.70;99.90
14475;DHT22;7323;50.848;4.334;2023-05-10T08:44:53;13.80;99.90
14475;DHT22;7323;50.848;4.334;2023-05-10T08:47:20;14.10;99.90
14475;DHT22;7323;50.848;4.334;2023-05-10T08:49:47;14.30;99.90
14475;DHT22;7323;50.848;4.334;2023-05-10T08:52:18;14.30;99.90
14475;DHT22;7323;50.848;4.334;2023-05-10T08:54:45;14.30;99.90
14475;DHT22;7323;50.848;4.334;2023-05-10T08:57:19;14.20;99.90
14475;DHT22;7323;50.848;4.334;2023-05-10T08:59:45;14.30;99.90
14475;DHT22;7323;50.848;4.334;2023-05-10T09:02:13;14.20;99.90
14475;DHT22;7323;50.848;4.334;2023-05-10T09:04:40;14.20;99.90
14475;DHT22;7323;50.848;4.334;2023-05-10T09:07:07;14.10;99.90
14475;DHT22;7323;50.848;4.334;2023-05-10T09:09:33;14.20;99.90
14475;DHT22;7323;50.848;4.334;2023-05-10T09:12:00;14.20;99.90
14475;DHT22;7323;50.848;4.334;2023-05-10T09:14:26;14.10;99.90
14475;DHT22;7323;50.848;4.334;2023-05-10T09:16:53;13.90;99.90
14475;DHT22;7323;50.848;4.334;2023-05-10T09:19:22;14.00;99.90
14475;DHT22;7323;50.848;4.334;2023-05-10T09:21:48;13.90;99.90
14475;DHT22;7323;50.848;4.334;2023-05-10T09:24:15;13.90;99.90
14475;DHT22;7323;50.848;4.334;2023-05-10T09:26:48;13.90;99.90
14475;DHT22;7323;50.848;4.334;2023-05-10T09:29:14;13.90;99.90
14475;DHT22;7323;50.848;4.334;2023-05-10T09:31:50;14.00;99.90
14475;DHT22;7323;50.848;4.334;2023-05-10T09:34:31;13.90;99.90
14475;DHT22;7323;50.848;4.334;2023-05-10T09:37:00;14.00;99.90
14475;DHT22;7323;50.848;4.334;2023-05-10T09:39:34;13.90;99.90
14475;DHT22;7323;50.848;4.334;2023-05-10T09:42:05;13.90;99.90
14475;DHT22;7323;50.848;4.334;2023-05-10T09:44:32;13.70;99.90
14475;DHT22;7323;50.848;4.334;2023-05-10T09:46:59;13.70;99.90
14475;DHT22;7323;50.848;4.334;2023-05-10T09:49:24;13.80;99.90
14475;DHT22;7323;50.848;4.334;2023-05-10T09:52:02;13.80;99.90
14475;DHT22;7323;50.848;4.334;2023-05-10T09:54:28;13.80;99.90
14475;DHT22;7323;50.848;4.334;2023-05-10T09:56:54;13.80;99.90
14475;DHT22;7323;50.848;4.334;2023-05-10T09:59:20;13.80;99.90
14475;DHT22;7323;50.848;4.334;2023-05-10T10:01:56;13.80;99.90
14475;DHT22;7323;50.848;4.334;2023-05-10T10:04:21;13.90;99.90
14475;DHT22;7323;50.848;4.334;2023-05-10T10:06:58;13.90;99.90
14475;DHT22;7323;50.848;4.334;2023-05-10T10:09:25;13.90;99.90
14475;DHT22;7323;50.848;4.334;2023-05-10T10:11:52;14.00;99.90
14475;DHT22;7323;50.848;4.334;2023-05-10T10:14:20;14.00;99.90
14475;DHT22;7323;50.848;4.334;2023-05-10T10:16:47;14.00;99.90
14475;DHT22;7323;50.848;4.334;2023-05-10T10:19:15;14.00;99.90
14475;DHT22;7323;50.848;4.334;2023-05-10T10:21:40;13.90;99.90
14475;DHT22;7323;50.848;4.334;2023-05-10T10:24:06;14.00;99.90
14475;DHT22;7323;50.848;4.334;2023-05-10T10:26:36;14.10;99.90
14475;DHT22;7323;50.848;4.334;2023-05-10T10:29:26;14.20;99.90
14475;DHT22;7323;50.848;4.334;2023-05-10T10:32:20;14.20;99.90
14475;DHT22;7323;50.848;4.334;2023-05-10T10:34:47;14.10;99.90
14475;DHT22;7323;50.848;4.334;2023-05-10T10:37:13;14.20;99.90
14475;DHT22;7323;50.848;4.334;2023-05-10T10:39:39;14.20;99.90
14475;DHT22;7323;50.848;4.334;2023-05-10T10:42:05;14.30;99.90
14475;DHT22;7323;50.848;4.334;2023-05-10T10:50:03;14.50;99.90
14475;DHT22;7323;50.848;4.334;2023-05-10T10:52:37;14.40;99.90
14475;DHT22;7323;50.848;4.334;2023-05-10T10:55:14;14.50;99.90
14475;DHT22;7323;50.848;4.334;2023-05-10T11:00:27;14.70;99.90
14475;DHT22;7323;50.848;4.334;2023-05-10T11:03:06;14.70;99.90
14475;DHT22;7323;50.848;4.334;2023-05-10T11:05:46;14.70;99.90
14475;DHT22;7323;50.848;4.334;2023-05-10T11:08:27;14.70;99.90
14475;DHT22;7323;50.848;4.334;2023-05-10T11:13:46;14.80;99.90
14475;DHT22;7323;50.848;4.334;2023-05-10T11:16:22;14.90;99.90
14475;DHT22;7323;50.848;4.334;2023-05-10T11:21:28;15.00;99.90
14475;DHT22;7323;50.848;4.334;2023-05-10T11:23:58;15.00;99.90
14475;DHT22;7323;50.848;4.334;2023-05-10T11:26:32;15.30;99.90
14475;DHT22;7323;50.848;4.334;2023-05-10T11:28:59;15.50;99.90
14475;DHT22;7323;50.848;4.334;2023-05-10T11:31:27;15.60;98.20
14475;DHT22;7323;50.848;4.334;2023-05-10T11:33:58;15.60;97.40
14475;DHT22;7323;50.848;4.334;2023-05-10T11:36:26;15.60;97.50
14475;DHT22;7323;50.848;4.334;2023-05-10T11:38:53;15.50;92.00
14475;DHT22;7323;50.848;4.334;2023-05-10T11:41:20;15.40;92.10
14475;DHT22;7323;50.848;4.334;2023-05-10T11:43:55;15.50;93.60
14475;DHT22;7323;50.848;4.334;2023-05-10T11:46:23;15.30;93.60
14475;DHT22;7323;50.848;4.334;2023-05-10T11:48:55;15.20;93.00
14475;DHT22;7323;50.848;4.334;2023-05-10T11:51:23;15.30;94.90
14475;DHT22;7323;50.848;4.334;2023-05-10T11:53:54;15.30;93.50
14475;DHT22;7323;50.848;4.334;2023-05-10T11:56:23;15.30;91.80
14475;DHT22;7323;50.848;4.334;2023-05-10T11:58:57;15.30;91.50
14475;DHT22;7323;50.848;4.334;2023-05-10T12:01:27;15.30;95.30
14475;DHT22;7323;50.848;4.334;2023-05-10T12:03:55;15.40;96.10
14475;DHT22;7323;50.848;4.334;2023-05-10T12:06:32;15.50;96.90
14475;DHT22;7323;50.848;4.334;2023-05-10T12:08:58;15.60;96.30
14475;DHT22;7323;50.848;4.334;2023-05-10T12:11:30;15.70;92.90
14475;DHT22;7323;50.848;4.334;2023-05-10T12:13:59;15.80;80.90
14475;DHT22;7323;50.848;4.334;2023-05-10T12:16:37;15.70;80.40
14475;DHT22;7323;50.848;4.334;2023-05-10T12:19:08;15.70;83.70
14475;DHT22;7323;50.848;4.334;2023-05-10T12:21:37;15.60;83.90
14475;DHT22;7323;50.848;4.334;2023-05-10T12:24:26;15.50;90.20
14475;DHT22;7323;50.848;4.334;2023-05-10T12:26:55;15.40;91.00
14475;DHT22;7323;50.848;4.334;2023-05-10T12:29:23;15.40;91.90
14475;DHT22;7323;50.848;4.334;2023-05-10T12:31:53;15.40;91.50
14475;DHT22;7323;50.848;4.334;2023-05-10T12:37:12;15.70;81.10
14475;DHT22;7323;50.848;4.334;2023-05-10T12:39:44;15.70;63.70
14475;DHT22;7323;50.848;4.334;2023-05-10T12:42:11;15.80;64.00
14475;DHT22;7323;50.848;4.334;2023-05-10T12:44:37;15.80;67.30
14475;DHT22;7323;50.848;4.334;2023-05-10T12:47:02;16.00;62.10
14475;DHT22;7323;50.848;4.334;2023-05-10T12:49:30;16.00;48.20
14475;DHT22;7323;50.848;4.334;2023-05-10T12:51:57;16.10;38.90
14475;DHT22;7323;50.848;4.334;2023-05-10T12:54:22;16.20;36.80
14475;DHT22;7323;50.848;4.334;2023-05-10T12:56:48;16.40;36.00
14475;DHT22;7323;50.848;4.334;2023-05-10T12:59:14;16.40;30.10
14475;DHT22;7323;50.848;4.334;2023-05-10T13:01:39;16.20;27.10
14475;DHT22;7323;50.848;4.334;2023-05-10T13:04:05;16.40;30.70
14475;DHT22;7323;50.848;4.334;2023-05-10T13:06:31;16.50;30.60
14475;DHT22;7323;50.848;4.334;2023-05-10T13:08:57;16.50;23.30
14475;DHT22;7323;50.848;4.334;2023-05-10T13:11:23;16.60;26.50
14475;DHT22;7323;50.848;4.334;2023-05-10T13:13:48;16.80;17.00
14475;DHT22;7323;50.848;4.334;2023-05-10T13:16:17;17.00;3.10
14475;DHT22;7323;50.848;4.334;2023-05-10T13:18:43;17.00;1.00
14475;DHT22;7323;50.848;4.334;2023-05-10T13:21:09;17.10;1.00
14475;DHT22;7323;50.848;4.334;2023-05-10T13:23:34;17.30;1.00
14475;DHT22;7323;50.848;4.334;2023-05-10T13:26:02;17.40;1.00
14475;DHT22;7323;50.848;4.334;2023-05-10T13:28:27;17.30;1.00
14475;DHT22;7323;50.848;4.334;2023-05-10T13:30:53;17.20;1.00
14475;DHT22;7323;50.848;4.334;2023-05-10T13:33:19;17.20;1.00
14475;DHT22;7323;50.848;4.334;2023-05-10T13:35:44;17.10;1.00
14475;DHT22;7323;50.848;4.334;2023-05-10T13:38:10;17.10;1.00
14475;DHT22;7323;50.848;4.334;2023-05-10T13:40:39;17.00;1.00
14475;DHT22;7323;50.848;4.334;2023-05-10T13:43:06;17.20;1.00
14475;DHT22;7323;50.848;4.334;2023-05-10T13:45:33;17.20;1.00
14475;DHT22;7323;50.848;4.334;2023-05-10T13:47:59;17.20;1.00
14475;DHT22;7323;50.848;4.334;2023-05-10T13:50:24;17.10;1.00
14475;DHT22;7323;50.848;4.334;2023-05-10T13:52:50;17.00;1.00
14475;DHT22;7323;50.848;4.334;2023-05-10T13:55:17;16.70;1.00
14475;DHT22;7323;50.848;4.334;2023-05-10T13:57:43;16.70;1.00
14475;DHT22;7323;50.848;4.334;2023-05-10T14:00:09;16.50;1.00
14475;DHT22;7323;50.848;4.334;2023-05-10T14:02:35;16.50;1.00
14475;DHT22;7323;50.848;4.334;2023-05-10T14:05:02;16.60;1.00
14475;DHT22;7323;50.848;4.334;2023-05-10T14:07:28;16.60;1.00
14475;DHT22;7323;50.848;4.334;2023-05-10T14:09:54;16.50;1.00
14475;DHT22;7323;50.848;4.334;2023-05-10T14:12:20;16.50;1.00
14475;DHT22;7323;50.848;4.334;2023-05-10T14:14:47;16.30;1.00
14475;DHT22;7323;50.848;4.334;2023-05-10T14:17:13;16.50;1.00
14475;DHT22;7323;50.848;4.334;2023-05-10T14:19:38;16.60;1.00
14475;DHT22;7323;50.848;4.334;2023-05-10T14:22:05;16.70;1.00
14475;DHT22;7323;50.848;4.334;2023-05-10T14:24:31;16.70;1.00
14475;DHT22;7323;50.848;4.334;2023-05-10T14:27:00;16.60;1.00
14475;DHT22;7323;50.848;4.334;2023-05-10T14:29:26;16.60;1.00
14475;DHT22;7323;50.848;4.334;2023-05-10T14:31:54;16.70;1.00
14475;DHT22;7323;50.848;4.334;2023-05-10T14:34:19;16.80;1.00
14475;DHT22;7323;50.848;4.334;2023-05-10T14:36:45;17.00;1.00
14475;DHT22;7323;50.848;4.334;2023-05-10T14:39:11;17.10;1.00
14475;DHT22;7323;50.848;4.334;2023-05-10T14:41:39;16.80;1.00
14475;DHT22;7323;50.848;4.334;2023-05-10T14:44:06;16.70;1.00
14475;DHT22;7323;50.848;4.334;2023-05-10T14:46:32;16.50;1.00
14475;DHT22;7323;50.848;4.334;2023-05-10T14:48:59;16.50;1.00
14475;DHT22;7323;50.848;4.334;2023-05-10T14:51:25;16.60;1.00
14475;DHT22;7323;50.848;4.334;2023-05-10T14:53:51;16.60;1.00
14475;DHT22;7323;50.848;4.334;2023-05-10T14:56:17;16.40;1.00
14475;DHT22;7323;50.848;4.334;2023-05-10T14:58:44;16.10;1.00
14475;DHT22;7323;50.848;4.334;2023-05-10T15:01:10;15.90;7.40
14475;DHT22;7323;50.848;4.334;2023-05-10T15:03:36;15.70;30.50
14475;DHT22;7323;50.848;4.334;2023-05-10T15:06:02;15.70;30.10
14475;DHT22;7323;50.848;4.334;2023-05-10T15:08:28;15.50;41.30
14475;DHT22;7323;50.848;4.334;2023-05-10T15:10:53;15.50;24.30
14475;DHT22;7323;50.848;4.334;2023-05-10T15:13:21;15.20;1.00
14475;DHT22;7323;50.848;4.334;2023-05-10T15:15:46;15.20;1.00
14475;DHT22;7323;50.848;4.334;2023-05-10T15:18:12;15.20;1.00
14475;DHT22;7323;50.848;4.334;2023-05-10T15:20:39;15.20;1.00
14475;DHT22;7323;50.848;4.334;2023-05-10T15:23:05;15.20;1.00
14475;DHT22;7323;50.848;4.334;2023-05-10T15:25:31;15.20;1.00
14475;DHT22;7323;50.848;4.334;2023-05-10T15:27:59;15.30;1.00
14475;DHT22;7323;50.848;4.334;2023-05-10T15:30:25;15.40;1.00
14475;DHT22;7323;50.848;4.334;2023-05-10T15:32:50;15.50;1.00
14475;DHT22;7323;50.848;4.334;2023-05-10T15:35:16;15.60;1.00
14475;DHT22;7323;50.848;4.334;2023-05-10T15:37:42;15.70;1.00
14475;DHT22;7323;50.848;4.334;2023-05-10T15:43:37;15.80;1.00
14475;DHT22;7323;50.848;4.334;2023-05-10T15:46:09;15.70;1.00
14475;DHT22;7323;50.848;4.334;2023-05-10T15:48:48;15.60;1.00
14475;DHT22;7323;50.848;4.334;2023-05-10T15:51:14;15.70;1.00
14475;DHT22;7323;50.848;4.334;2023-05-10T15:53:41;15.90;1.00
14475;DHT22;7323;50.848;4.334;2023-05-10T15:56:06;16.00;1.00
14475;DHT22;7323;50.848;4.334;2023-05-10T15:58:33;16.10;1.00
14475;DHT22;7323;50.848;4.334;2023-05-10T16:00:58;16.10;1.00
14475;DHT22;7323;50.848;4.334;2023-05-10T16:03:26;16.10;1.00
14475;DHT22;7323;50.848;4.334;2023-05-10T16:05:51;16.20;1.00
14475;DHT22;7323;50.848;4.334;2023-05-10T16:08:18;16.20;1.00
14475;DHT22;7323;50.848;4.334;2023-05-10T16:10:44;16.20;1.00
14475;DHT22;7323;50.848;4.334;2023-05-10T16:13:11;16.20;1.00
14475;DHT22;7323;50.848;4.334;2023-05-10T16:15:39;16.40;1.00
14475;DHT22;7323;50.848;4.334;2023-05-10T16:18:11;16.50;1.00
14475;DHT22;7323;50.848;4.334;2023-05-10T16:20:37;16.50;1.00
14475;DHT22;7323;50.848;4.334;2023-05-10T16:23:04;16.60;1.00
14475;DHT22;7323;50.848;4.334;2023-05-10T16:25:34;16.50;1.00
14475;DHT22;7323;50.848;4.334;2023-05-10T16:28:00;16.60;1.00
14475;DHT22;7323;50.848;4.334;2023-05-10T16:30:26;16.60;1.00
14475;DHT22;7323;50.848;4.334;2023-05-10T16:32:55;16.70;1.00